createdAt,value
2022-11-07T00:00:37.530Z,21.80
2022-11-07T00:03:08.909Z,22.30
2022-11-07T00:05:40.973Z,17.30
2022-11-07T00:08:09.154Z,17.90
2022-11-07T00:10:41.014Z,20.60
2022-11-07T00:13:09.226Z,17.90
2022-11-07T00:15:38.110Z,17.20
2022-11-07T00:18:08.272Z,19.30
2022-11-07T00:20:36.400Z,17.50
2022-11-07T00:23:05.006Z,20.10
2022-11-07T00:25:36.034Z,17.30
2022-11-07T00:28:04.646Z,14.10
2022-11-07T00:30:33.107Z,13.50
2022-11-07T00:33:01.654Z,15.70
2022-11-07T00:35:30.776Z,14.00
2022-11-07T00:38:00.548Z,11.30
2022-11-07T00:40:28.629Z,9.70
2022-11-07T00:42:58.280Z,11.10
2022-11-07T00:45:26.406Z,10.00
2022-11-07T00:47:55.402Z,9.30
2022-11-07T00:50:23.396Z,13.40
2022-11-07T00:52:51.366Z,12.20
2022-11-07T00:55:20.502Z,11.80
2022-11-07T00:57:48.534Z,11.80
2022-11-07T01:00:16.637Z,10.00
2022-11-07T01:02:44.702Z,11.10
2022-11-07T01:05:13.152Z,9.40
2022-11-07T01:07:41.269Z,11.30
2022-11-07T01:10:10.040Z,14.40
2022-11-07T01:12:38.160Z,10.50
2022-11-07T01:15:07.681Z,10.50
2022-11-07T01:17:36.926Z,11.30
2022-11-07T01:20:06.078Z,9.50
2022-11-07T01:22:34.020Z,16.00
2022-11-07T01:25:04.315Z,10.90
2022-11-07T01:27:32.301Z,14.10
2022-11-07T01:30:00.321Z,11.30
2022-11-07T01:32:28.366Z,17.60
2022-11-07T01:34:57.862Z,13.20
2022-11-07T01:37:25.994Z,12.00
2022-11-07T01:39:55.767Z,12.50
2022-11-07T01:42:27.302Z,10.90
2022-11-07T01:44:59.367Z,11.50
2022-11-07T01:47:35.219Z,12.10
2022-11-07T01:50:05.774Z,13.20
2022-11-07T01:52:37.608Z,15.40
2022-11-07T01:55:13.417Z,12.70
2022-11-07T01:57:49.947Z,17.40
2022-11-07T02:00:20.215Z,11.50
2022-11-07T02:02:51.356Z,13.90
2022-11-07T02:05:53.790Z,12.60
2022-11-07T02:08:23.063Z,12.50
2022-11-07T02:10:53.640Z,11.10
2022-11-07T02:13:27.749Z,11.20
2022-11-07T02:15:56.674Z,13.00
2022-11-07T02:18:29.510Z,13.80
2022-11-07T02:21:09.817Z,12.30
2022-11-07T02:24:10.254Z,15.00
2022-11-07T02:26:39.820Z,12.40
2022-11-07T02:29:10.308Z,13.20
2022-11-07T02:31:38.695Z,13.50
2022-11-07T02:34:06.806Z,12.70
2022-11-07T02:36:35.482Z,13.80
2022-11-07T02:39:03.700Z,10.30
2022-11-07T02:41:35.138Z,13.40
2022-11-07T02:44:10.092Z,14.90
2022-11-07T02:46:38.411Z,13.70
2022-11-07T02:49:06.817Z,13.90
2022-11-07T02:51:34.741Z,11.50
2022-11-07T02:54:06.880Z,8.40
2022-11-07T02:56:34.919Z,10.90
2022-11-07T02:59:02.971Z,10.70
2022-11-07T03:01:32.144Z,9.80
2022-11-07T03:04:00.181Z,9.60
2022-11-07T03:06:29.286Z,10.00
2022-11-07T03:09:02.481Z,10.30
2022-11-07T03:11:31.605Z,13.40
2022-11-07T03:13:59.546Z,11.00
2022-11-07T03:16:27.636Z,12.00
2022-11-07T03:18:56.113Z,9.40
2022-11-07T03:21:25.507Z,15.00
2022-11-07T03:23:53.696Z,10.20
2022-11-07T03:26:22.152Z,8.40
2022-11-07T03:28:50.152Z,11.50
2022-11-07T03:31:18.125Z,11.00
2022-11-07T03:33:46.088Z,11.50
2022-11-07T03:36:14.052Z,10.20
2022-11-07T03:38:42.004Z,10.80
2022-11-07T03:41:09.974Z,9.60
2022-11-07T03:43:38.571Z,9.80
2022-11-07T03:46:06.579Z,9.70
2022-11-07T03:48:34.610Z,10.70
2022-11-07T03:51:02.561Z,11.00
2022-11-07T03:53:31.919Z,11.50
2022-11-07T03:56:00.033Z,8.50
2022-11-07T03:58:28.111Z,9.50
2022-11-07T04:00:56.487Z,11.90
2022-11-07T04:03:25.420Z,8.70
2022-11-07T04:05:54.370Z,12.50
2022-11-07T04:08:23.592Z,11.90
2022-11-07T04:10:52.729Z,9.80
2022-11-07T04:13:39.194Z,13.00
2022-11-07T04:16:30.049Z,9.50
2022-11-07T04:19:02.354Z,9.60
2022-11-07T04:21:30.472Z,10.00
2022-11-07T04:23:58.652Z,10.50
2022-11-07T04:26:45.493Z,11.00
2022-11-07T04:29:13.621Z,8.70
2022-11-07T04:31:41.969Z,9.30
2022-11-07T04:34:09.938Z,12.90
2022-11-07T04:36:37.890Z,9.80
2022-11-07T04:39:05.912Z,11.20
2022-11-07T04:41:33.989Z,8.20
2022-11-07T04:44:04.525Z,8.10
2022-11-07T04:46:32.494Z,11.90
2022-11-07T04:49:00.438Z,11.90
2022-11-07T04:51:28.454Z,12.50
2022-11-07T04:53:56.915Z,11.10
2022-11-07T04:56:27.429Z,11.30
2022-11-07T04:58:57.561Z,9.80
2022-11-07T05:01:25.538Z,11.70
2022-11-07T05:03:54.020Z,11.20
2022-11-07T05:06:23.382Z,10.50
2022-11-07T05:08:53.221Z,12.30
2022-11-07T05:11:28.665Z,10.80
2022-11-07T05:13:56.862Z,11.70
2022-11-07T05:16:25.027Z,13.10
2022-11-07T05:18:53.113Z,10.60
2022-11-07T05:21:22.585Z,12.50
2022-11-07T05:23:50.637Z,8.70
2022-11-07T05:26:21.326Z,9.20
2022-11-07T05:28:51.289Z,9.50
2022-11-07T05:31:19.384Z,10.30
2022-11-07T05:33:48.496Z,9.80
2022-11-07T05:36:19.181Z,9.90
2022-11-07T05:38:52.946Z,11.20
2022-11-07T05:41:22.250Z,9.40
2022-11-07T05:43:55.105Z,9.80
2022-11-07T05:46:23.317Z,9.40
2022-11-07T05:48:54.368Z,11.60
2022-11-07T05:51:25.281Z,11.10
2022-11-07T05:53:56.666Z,10.00
2022-11-07T05:56:24.727Z,8.80
2022-11-07T05:58:53.940Z,11.60
2022-11-07T06:01:23.403Z,10.60
2022-11-07T06:03:51.877Z,11.80
2022-11-07T06:06:21.044Z,10.30
2022-11-07T06:08:50.868Z,10.60
2022-11-07T06:11:26.655Z,11.70
2022-11-07T06:13:56.638Z,10.60
2022-11-07T06:16:25.558Z,14.70
2022-11-07T06:18:57.012Z,10.00
2022-11-07T06:21:26.833Z,12.70
2022-11-07T06:23:54.961Z,11.30
2022-11-07T06:26:26.502Z,13.50
2022-11-07T06:28:57.013Z,16.80
2022-11-07T06:31:25.552Z,8.40
2022-11-07T06:33:56.256Z,9.60
2022-11-07T06:36:24.556Z,13.90
2022-11-07T06:38:56.716Z,16.00
2022-11-07T06:41:25.638Z,11.90
2022-11-07T06:43:56.509Z,11.40
2022-11-07T06:46:25.415Z,9.90
2022-11-07T06:48:54.631Z,9.10
2022-11-07T06:51:22.739Z,13.30
2022-11-07T06:53:52.273Z,12.30
2022-11-07T06:56:21.095Z,11.50
2022-11-07T06:58:52.360Z,11.20
2022-11-07T07:01:20.887Z,11.80
2022-11-07T07:03:52.683Z,12.50
2022-11-07T07:06:21.545Z,11.60
2022-11-07T07:08:49.752Z,11.20
2022-11-07T07:11:18.964Z,10.50
2022-11-07T07:13:47.578Z,16.10
2022-11-07T07:16:16.477Z,18.30
2022-11-07T07:18:45.563Z,15.50
2022-11-07T07:21:15.096Z,18.30
2022-11-07T07:23:43.565Z,18.10
2022-11-07T07:26:18.648Z,15.50
2022-11-07T07:28:49.696Z,14.90
2022-11-07T07:31:45.846Z,15.00
2022-11-07T07:34:16.543Z,15.50
2022-11-07T07:36:45.018Z,12.60
2022-11-07T07:39:13.394Z,17.40
2022-11-07T07:41:43.521Z,16.10
2022-11-07T07:44:21.715Z,9.90
2022-11-07T07:46:50.487Z,12.30
2022-11-07T07:49:22.377Z,14.00
2022-11-07T07:51:51.018Z,13.00
2022-11-07T07:54:19.565Z,12.50
2022-11-07T07:56:49.379Z,13.90
2022-11-07T07:59:17.817Z,11.60
2022-11-07T08:01:55.174Z,12.20
2022-11-07T08:04:26.416Z,7.70
2022-11-07T08:06:56.303Z,8.00
2022-11-07T08:09:24.681Z,8.20
2022-11-07T08:11:54.836Z,9.50
2022-11-07T08:14:23.306Z,8.90
2022-11-07T08:16:53.191Z,10.10
2022-11-07T08:19:21.836Z,9.20
2022-11-07T08:21:50.512Z,9.20
2022-11-07T08:24:19.953Z,10.60
2022-11-07T08:26:48.247Z,8.10
2022-11-07T08:29:22.733Z,10.40
2022-11-07T08:31:51.974Z,7.60
2022-11-07T08:34:20.278Z,12.80
2022-11-07T08:36:48.964Z,8.20
2022-11-07T08:39:24.684Z,13.30
2022-11-07T08:41:52.897Z,8.40
2022-11-07T08:44:21.128Z,11.60
2022-11-07T08:46:50.122Z,9.10
2022-11-07T08:49:30.013Z,8.10
2022-11-07T08:52:17.254Z,9.60
2022-11-07T08:54:57.546Z,12.30
2022-11-07T08:57:32.813Z,8.20
2022-11-07T09:00:06.496Z,9.90
2022-11-07T09:03:18.301Z,8.00
2022-11-07T09:05:41.600Z,8.40
2022-11-07T09:08:24.856Z,8.50
2022-11-07T09:10:55.043Z,9.30
2022-11-07T09:13:23.870Z,6.40
2022-11-07T09:16:03.912Z,8.70
2022-11-07T09:18:33.711Z,7.00
2022-11-07T09:21:04.905Z,7.80
2022-11-07T09:23:35.100Z,9.10
2022-11-07T09:26:03.383Z,9.30
2022-11-07T09:28:32.596Z,10.80
2022-11-07T09:31:03.483Z,9.30
2022-11-07T09:33:32.422Z,10.50
2022-11-07T09:36:04.005Z,12.60
2022-11-07T09:38:37.232Z,11.90
2022-11-07T09:41:25.493Z,11.40
2022-11-07T09:44:12.000Z,10.10
2022-11-07T09:46:58.164Z,8.20
2022-11-07T09:49:35.708Z,6.70
2022-11-07T09:52:14.303Z,7.90
2022-11-07T09:54:52.222Z,8.40
2022-11-07T09:57:21.308Z,7.40
2022-11-07T09:59:55.546Z,7.70
2022-11-07T10:02:39.715Z,9.80
2022-11-07T10:05:14.744Z,10.10
2022-11-07T10:08:01.678Z,8.30
2022-11-07T10:10:55.578Z,6.80
2022-11-07T10:16:30.859Z,6.70
2022-11-07T10:19:20.486Z,8.20
2022-11-07T10:22:02.621Z,7.80
2022-11-07T10:24:46.569Z,10.60
2022-11-07T10:27:17.043Z,11.80
2022-11-07T10:29:49.938Z,9.70
2022-11-07T10:32:33.682Z,19.50
2022-11-07T10:35:17.652Z,8.10
2022-11-07T10:40:23.765Z,15.80
2022-11-07T10:42:55.409Z,17.50
2022-11-07T10:45:25.814Z,14.30
2022-11-07T10:48:02.613Z,8.90
2022-11-07T10:50:33.050Z,15.80
2022-11-07T10:53:09.652Z,9.70
2022-11-07T10:55:48.360Z,10.90
2022-11-07T10:58:21.637Z,6.70
2022-11-07T11:01:26.286Z,11.90
2022-11-07T11:03:55.640Z,9.30
2022-11-07T11:06:31.828Z,9.40
2022-11-07T11:09:15.429Z,15.40
2022-11-07T11:11:51.104Z,12.00
2022-11-07T11:14:22.266Z,11.00
2022-11-07T11:16:56.215Z,9.30
2022-11-07T11:19:48.295Z,14.00
2022-11-07T11:22:19.190Z,8.90
2022-11-07T11:25:18.037Z,15.50
2022-11-07T11:27:51.572Z,10.50
2022-11-07T11:30:21.727Z,13.20
2022-11-07T11:33:21.735Z,9.00
2022-11-07T11:36:21.749Z,7.50
2022-11-07T11:38:55.242Z,9.10
2022-11-07T11:44:23.911Z,10.30
2022-11-07T11:47:09.787Z,6.50
2022-11-07T11:49:56.158Z,6.50
2022-11-07T11:52:29.689Z,6.00
2022-11-07T11:55:01.285Z,8.20
2022-11-07T11:58:07.328Z,8.40
2022-11-07T12:00:45.530Z,14.00
2022-11-07T12:06:21.746Z,12.20
2022-11-07T12:09:16.996Z,7.80
2022-11-07T12:12:07.502Z,6.60
2022-11-07T12:14:55.963Z,6.30
2022-11-07T12:17:50.658Z,11.60
2022-11-07T12:20:29.240Z,9.50
2022-11-07T12:23:06.523Z,12.10
2022-11-07T12:26:21.950Z,17.00
2022-11-07T12:29:28.616Z,9.70
2022-11-07T12:32:13.368Z,6.40
2022-11-07T12:35:06.967Z,10.70
2022-11-07T12:37:57.830Z,11.80
2022-11-07T12:40:39.097Z,11.70
2022-11-07T12:43:32.893Z,6.80
2022-11-07T12:46:52.336Z,6.30
2022-11-07T12:49:45.915Z,10.10
2022-11-07T12:52:28.932Z,14.40
2022-11-07T12:55:19.022Z,9.10
2022-11-07T12:57:50.519Z,8.20
2022-11-07T13:00:23.398Z,6.30
2022-11-07T13:03:02.487Z,8.80
2022-11-07T13:05:55.383Z,9.70
2022-11-07T13:08:35.759Z,10.40
2022-11-07T13:11:18.112Z,12.70
2022-11-07T13:14:02.474Z,9.30
2022-11-07T13:16:35.812Z,8.40
2022-11-07T13:19:32.954Z,6.50
2022-11-07T13:22:08.613Z,8.30
2022-11-07T13:24:49.806Z,12.20
2022-11-07T13:27:32.305Z,24.70
2022-11-07T13:30:14.854Z,6.30
2022-11-07T13:32:45.564Z,8.10
2022-11-07T13:35:34.926Z,11.40
2022-11-07T13:38:18.709Z,12.30
2022-11-07T13:40:58.717Z,7.00
2022-11-07T13:43:38.407Z,6.30
2022-11-07T13:46:10.969Z,5.70
2022-11-07T13:48:47.322Z,5.30
2022-11-07T13:51:36.380Z,5.40
2022-11-07T13:54:16.838Z,6.30
2022-11-07T13:57:04.679Z,5.80
2022-11-07T14:00:02.090Z,9.00
2022-11-07T14:02:55.288Z,10.70
2022-11-07T14:05:29.714Z,7.60
2022-11-07T14:08:04.976Z,9.30
2022-11-07T14:10:48.207Z,9.90
2022-11-07T14:13:36.925Z,8.10
2022-11-07T14:16:21.238Z,10.70
2022-11-07T14:18:55.267Z,8.70
2022-11-07T14:21:30.441Z,11.00
2022-11-07T14:23:59.362Z,9.40
2022-11-07T14:26:33.530Z,7.30
2022-11-07T14:29:04.194Z,9.30
2022-11-07T14:31:36.763Z,13.40
2022-11-07T14:34:13.824Z,12.30
2022-11-07T14:36:50.396Z,16.60
2022-11-07T14:39:20.931Z,18.60
2022-11-07T14:41:50.975Z,16.30
2022-11-07T14:44:28.488Z,21.50
2022-11-07T14:47:08.410Z,15.60
2022-11-07T14:49:43.545Z,27.90
2022-11-07T14:52:24.632Z,21.10
2022-11-07T14:55:21.031Z,17.70
2022-11-07T14:57:54.592Z,12.00
2022-11-07T15:00:23.777Z,13.10
2022-11-07T15:02:55.755Z,11.60
2022-11-07T15:06:04.316Z,10.90
2022-11-07T15:08:37.160Z,10.70
2022-11-07T15:11:26.001Z,13.40
2022-11-07T15:13:55.337Z,13.00
2022-11-07T15:16:29.029Z,13.20
2022-11-07T15:19:00.736Z,10.30
2022-11-07T15:21:32.466Z,11.80
2022-11-07T15:24:22.122Z,14.60
2022-11-07T15:27:18.953Z,17.80
2022-11-07T15:29:56.247Z,19.50
2022-11-07T15:32:31.956Z,15.20
2022-11-07T15:35:43.462Z,13.70
2022-11-07T15:37:53.083Z,19.00
2022-11-07T15:40:22.555Z,21.40
2022-11-07T15:42:51.145Z,28.00
2022-11-07T15:45:19.822Z,28.70
2022-11-07T15:47:51.547Z,24.80
2022-11-07T15:50:22.152Z,22.10
2022-11-07T15:52:51.824Z,29.00
2022-11-07T15:55:23.371Z,48.30
2022-11-07T15:57:54.496Z,60.50
2022-11-07T16:00:25.005Z,58.10
2022-11-07T16:02:53.739Z,36.40
2022-11-07T16:05:21.884Z,27.60
2022-11-07T16:07:50.298Z,51.10
2022-11-07T16:10:27.525Z,26.60
2022-11-07T16:12:58.759Z,31.30
2022-11-07T16:15:50.776Z,25.50
2022-11-07T16:18:22.207Z,21.90
2022-11-07T16:20:51.384Z,24.70
2022-11-07T16:23:21.124Z,25.10
2022-11-07T16:25:51.102Z,23.10
2022-11-07T16:28:24.643Z,25.50
2022-11-07T16:33:22.782Z,34.90
2022-11-07T16:35:54.336Z,36.60
2022-11-07T16:38:24.275Z,39.20
2022-11-07T16:40:54.814Z,36.70
2022-11-07T16:43:23.627Z,35.70
2022-11-07T16:45:57.254Z,36.50
2022-11-07T16:50:56.243Z,33.40
2022-11-07T16:53:25.404Z,33.00
2022-11-07T16:55:55.224Z,34.90
2022-11-07T16:58:33.437Z,26.60
2022-11-07T17:01:06.622Z,26.50
2022-11-07T17:03:35.216Z,26.00
2022-11-07T17:06:04.387Z,22.90
2022-11-07T17:08:38.917Z,23.90
2022-11-07T17:11:07.750Z,24.90
2022-11-07T17:13:36.459Z,24.90
2022-11-07T17:16:14.151Z,30.10
2022-11-07T17:18:43.643Z,29.50
2022-11-07T17:21:22.552Z,26.40
2022-11-07T17:23:53.369Z,24.30
2022-11-07T17:26:23.537Z,30.60
2022-11-07T17:28:53.205Z,31.20
2022-11-07T17:31:22.861Z,25.00
2022-11-07T17:33:55.060Z,21.10
2022-11-07T17:36:36.358Z,17.50
2022-11-07T17:39:11.818Z,18.20
2022-11-07T17:41:41.495Z,19.70
2022-11-07T17:44:11.856Z,22.80
2022-11-07T17:46:42.771Z,24.00
2022-11-07T17:49:14.011Z,25.40
2022-11-07T17:51:43.838Z,22.60
2022-11-07T17:54:14.523Z,26.10
2022-11-07T17:56:43.259Z,31.20
2022-11-07T17:59:17.689Z,29.90
2022-11-07T18:01:47.533Z,33.70
2022-11-07T18:04:17.277Z,35.10
2022-11-07T18:06:46.258Z,31.40
2022-11-07T18:09:16.306Z,29.90
2022-11-07T18:11:46.124Z,30.30
2022-11-07T18:14:14.704Z,35.40
2022-11-07T18:16:43.823Z,35.80
2022-11-07T18:19:15.210Z,39.80
2022-11-07T18:21:46.464Z,28.30
2022-11-07T18:24:16.643Z,25.50
2022-11-07T18:26:44.590Z,23.90
2022-11-07T18:29:14.020Z,20.20
2022-11-07T18:31:47.496Z,22.30
2022-11-07T18:34:18.054Z,28.10
2022-11-07T18:36:47.906Z,25.30
2022-11-07T18:39:27.494Z,20.00
2022-11-07T18:42:09.216Z,25.00
2022-11-07T18:44:42.844Z,26.00
2022-11-07T18:47:12.314Z,26.20
2022-11-07T18:49:40.545Z,23.50
2022-11-07T18:52:09.198Z,24.90
2022-11-07T18:54:37.853Z,25.40
2022-11-07T18:57:06.023Z,25.80
2022-11-07T18:59:36.436Z,24.20
2022-11-07T19:02:04.622Z,23.70
2022-11-07T19:04:36.993Z,23.40
2022-11-07T19:07:05.661Z,22.80
2022-11-07T19:09:34.176Z,18.90
2022-11-07T19:12:03.101Z,15.30
2022-11-07T19:14:31.385Z,17.60
2022-11-07T19:17:00.433Z,20.00
2022-11-07T19:19:32.419Z,17.20
2022-11-07T19:22:00.456Z,17.00
2022-11-07T19:24:28.387Z,17.90
2022-11-07T19:26:56.461Z,15.90
2022-11-07T19:29:26.108Z,16.80
2022-11-07T19:31:55.495Z,18.00
2022-11-07T19:34:25.697Z,15.80
2022-11-07T19:36:53.740Z,15.20
2022-11-07T19:39:22.054Z,16.90
2022-11-07T19:41:50.177Z,24.20
2022-11-07T19:44:19.018Z,16.60
2022-11-07T19:46:47.483Z,17.50
2022-11-07T19:49:15.876Z,17.20
2022-11-07T19:51:43.941Z,17.60
2022-11-07T19:54:14.435Z,16.20
2022-11-07T19:56:42.388Z,18.50
2022-11-07T19:59:10.383Z,18.50
2022-11-07T20:01:39.861Z,16.20
2022-11-07T20:04:09.366Z,17.80
2022-11-07T20:06:40.475Z,18.80
2022-11-07T20:09:13.936Z,18.40
2022-11-07T20:14:12.691Z,18.30
2022-11-07T20:16:40.937Z,19.70
2022-11-07T20:19:11.448Z,19.20
2022-11-07T20:21:39.642Z,19.90
2022-11-07T20:24:10.537Z,16.60
2022-11-07T20:26:39.207Z,17.00
2022-11-07T20:29:08.273Z,18.40
2022-11-07T20:31:40.054Z,17.10
2022-11-07T20:34:12.428Z,13.40
2022-11-07T20:36:40.739Z,13.70
2022-11-07T20:39:12.789Z,19.10
2022-11-07T20:41:42.655Z,15.10
2022-11-07T20:44:15.268Z,16.00
2022-11-07T20:46:45.491Z,19.20
2022-11-07T20:49:17.005Z,17.60
2022-11-07T20:51:46.239Z,14.70
2022-11-07T20:54:18.342Z,19.60
2022-11-07T20:56:47.090Z,15.10
2022-11-07T20:59:15.613Z,16.60
2022-11-07T21:01:44.215Z,14.80
2022-11-07T21:04:15.751Z,15.80
2022-11-07T21:06:45.424Z,15.50
2022-11-07T21:09:14.359Z,16.50
2022-11-07T21:11:45.994Z,15.60
2022-11-07T21:14:19.069Z,14.00
2022-11-07T21:16:47.270Z,17.30
2022-11-07T21:19:16.486Z,17.80
2022-11-07T21:21:44.917Z,17.50
2022-11-07T21:24:13.122Z,18.00
2022-11-07T21:26:41.778Z,16.90
2022-11-07T21:29:12.177Z,17.00
2022-11-07T21:31:42.177Z,17.60
2022-11-07T21:34:11.649Z,13.50
2022-11-07T21:36:42.872Z,18.50
2022-11-07T21:39:10.957Z,18.40
2022-11-07T21:41:40.072Z,16.50
2022-11-07T21:44:08.092Z,16.30
2022-11-07T21:46:39.277Z,15.50
2022-11-07T21:49:08.449Z,22.00
2022-11-07T21:51:38.236Z,15.20
2022-11-07T21:54:07.194Z,15.90
2022-11-07T21:56:48.663Z,15.40
2022-11-07T21:59:20.387Z,16.00
2022-11-07T22:01:50.204Z,14.10
2022-11-07T22:04:18.419Z,16.00
2022-11-07T22:06:47.200Z,12.10
2022-11-07T22:09:18.392Z,12.70
2022-11-07T22:11:50.515Z,13.60
2022-11-07T22:14:21.376Z,13.50
2022-11-07T22:16:50.919Z,16.80
2022-11-07T22:19:19.399Z,13.10
2022-11-07T22:21:49.561Z,14.40
2022-11-07T22:24:17.900Z,15.30
2022-11-07T22:26:46.375Z,21.80
2022-11-07T22:29:14.546Z,20.70
2022-11-07T22:31:43.430Z,13.30
2022-11-07T22:34:12.616Z,14.40
2022-11-07T22:36:40.652Z,14.80
2022-11-07T22:39:08.641Z,14.70
2022-11-07T22:41:40.093Z,12.50
2022-11-07T22:44:08.214Z,12.50
2022-11-07T22:46:37.447Z,9.60
2022-11-07T22:49:06.767Z,16.50
2022-11-07T22:51:38.554Z,11.70
2022-11-07T22:54:11.594Z,10.60
2022-11-07T22:56:40.481Z,13.30
2022-11-07T22:59:10.074Z,12.20
2022-11-07T23:01:41.667Z,13.20
2022-11-07T23:04:18.223Z,13.10
2022-11-07T23:06:46.452Z,12.40
2022-11-07T23:09:16.053Z,11.70
2022-11-07T23:11:47.579Z,10.10
2022-11-07T23:14:20.240Z,10.60
2022-11-07T23:16:51.347Z,11.80
2022-11-07T23:19:23.346Z,9.60
2022-11-07T23:22:04.188Z,13.50
2022-11-07T23:24:33.968Z,13.20
2022-11-07T23:27:02.456Z,14.20
2022-11-07T23:29:31.959Z,12.90
2022-11-07T23:32:00.098Z,12.80
2022-11-07T23:34:29.390Z,10.00
2022-11-07T23:37:00.096Z,13.30
2022-11-07T23:39:28.116Z,12.20
2022-11-07T23:41:58.057Z,11.40
2022-11-07T23:44:26.137Z,11.40
2022-11-07T23:47:13.037Z,11.80
2022-11-07T23:50:00.554Z,14.80
2022-11-07T23:52:31.706Z,11.90
2022-11-07T23:55:19.169Z,12.80
2022-11-07T23:58:07.693Z,10.00
